This is the latest recevied weather packets stored in our database for station/object OE-11149. If no packets are shown the sender has not sent any weather packets the latest 10 day(s).
| Time | Temp. | Humidity | Pressure | Rain* | Wind** | Luminosity | Snow |
|---|---|---|---|---|---|---|---|
| 1788080719 | 15° C | 58% | 854.4 hPa | 0 mm | - | 642 W/m² | - |
| 1788080120 | 14.44° C | 58% | 854.4 hPa | 0 mm | - | 629 W/m² | - |
| 1788079293 | 14.44° C | 61% | 854.4 hPa | 0 mm | - | 609 W/m² | - |
| 1788078919 | 14.44° C | 63% | 854.5 hPa | 0 mm | - | 589 W/m² | - |
| 1788078320 | 13.89° C | 65% | 854.5 hPa | 0 mm | - | 563 W/m² | - |
| 1788077492 | 13.89° C | 64% | 854.4 hPa | 0 mm | - | 543 W/m² | - |
| 1788077120 | 13.89° C | 64% | 854.4 hPa | 0 mm | - | 497 W/m² | - |
| 1788076520 | 14.44° C | 62% | 854.2 hPa | 0 mm | - | 497 W/m² | - |
| 1788075692 | 13.89° C | 61% | 854.3 hPa | 0 mm | - | 457 W/m² | - |
| 1788075319 | 13.89° C | 63% | 854.3 hPa | 0 mm | - | 470 W/m² | - |
| 1788074720 | 13.33° C | 64% | 854.2 hPa | 0 mm | - | 358 W/m² | - |
| 1788073893 | 13.33° C | 65% | 854.2 hPa | 0 mm | - | 378 W/m² | - |
| 1788073519 | 13.33° C | 66% | 854.2 hPa | 0 mm | - | 225 W/m² | - |
| 1788072919 | 12.78° C | 65% | 854.2 hPa | 0 mm | - | 166 W/m² | - |
| 1788072093 | 12.78° C | 65% | 854.2 hPa | 0 mm | - | 225 W/m² | - |
| 1788071720 | 12.78° C | 64% | 854.3 hPa | 0 mm | - | 358 W/m² | - |
| 1788071120 | 12.22° C | 64% | 854.3 hPa | 0 mm | - | 245 W/m² | - |
| 1788070293 | 11.67° C | 69% | 854.3 hPa | 0 mm | - | 172 W/m² | - |
| 1788069919 | 11.67° C | 68% | 854.2 hPa | 0 mm | - | 53 W/m² | - |
| 1788069320 | 11.11° C | 69% | 854.2 hPa | 0 mm | - | 53 W/m² | - |
| 1788068493 | 11.11° C | 70% | 854.2 hPa | 0 mm | - | 46 W/m² | - |
| 1788068120 | 11.11° C | 70% | 854.2 hPa | 0 mm | - | 33 W/m² | - |
| 1788067520 | 11.67° C | 66% | 854 hPa | 0 mm | - | 33 W/m² | - |
| 1788066693 | 11.11° C | 68% | 854.1 hPa | 0 mm | - | 26 W/m² | - |
| 1788066319 | 11.11° C | 69% | 853.9 hPa | 0 mm | - | 13 W/m² | - |
* Rain latest hour (hover to see other rain measurements)
** Current wind speed in m/s (hover to see current wind gust speed)